Time;durP1;ratioP1;P1;durP2;ratioP2;P2;SDS_P1;SDS_P2;PMS_P1;PMS_P2;Temp;Humidity;BMP_temperature;BMP_pressure;BME280_temperature;BME280_humidity;BME280_pressure;Samples;Min_cycle;Max_cycle;Signal;HPM_P1;HPM_P2
2024/02/26 00:02:11;;;;;;;8.50;4.27;;;;;;;0.21;76.46;100937.38;5055356;28;20435;-72
2024/02/26 00:04:38;;;;;;;9.37;4.50;;;;;;;0.21;76.58;100929.66;5055047;28;20434;-72
2024/02/26 00:07:05;;;;;;;10.77;4.73;;;;;;;0.22;76.62;100936.53;5055042;28;20449;-72
2024/02/26 00:09:35;;;;;;;10.47;4.67;;;;;;;0.24;76.19;100932.31;5054925;28;20448;-72
2024/02/26 00:12:03;;;;;;;9.17;4.50;;;;;;;0.26;76.56;100935.78;5054845;28;20449;-73
2024/02/26 00:14:30;;;;;;;9.23;4.60;;;;;;;0.26;76.17;100938.34;5039049;28;20447;-72
2024/02/26 00:16:57;;;;;;;7.40;3.60;;;;;;;0.27;76.25;100940.09;5034995;28;20441;-72
2024/02/26 00:19:24;;;;;;;8.73;4.47;;;;;;;0.28;76.67;100941.81;5034786;28;20479;-73
2024/02/26 00:21:51;;;;;;;7.93;4.53;;;;;;;0.30;76.18;100938.44;5034683;28;20517;-69
2024/02/26 00:24:17;;;;;;;7.83;4.40;;;;;;;0.30;76.23;100938.44;5034929;28;20437;-69
2024/02/26 00:26:46;;;;;;;6.87;4.57;;;;;;;0.32;76.58;100935.91;5034573;28;20446;-68
2024/02/26 00:29:13;;;;;;;6.60;4.07;;;;;;;0.32;76.91;100938.47;5034546;28;20444;-69
2024/02/26 00:31:39;;;;;;;8.10;4.13;;;;;;;0.32;76.86;100938.47;5035013;28;20811;-69
2024/02/26 00:34:06;;;;;;;6.10;4.03;;;;;;;0.33;76.71;100935.94;5034450;28;20438;-69
2024/02/26 00:36:33;;;;;;;8.37;4.10;;;;;;;0.33;76.25;100935.94;5034353;28;20442;-69
2024/02/26 00:39:00;;;;;;;9.10;4.47;;;;;;;0.26;76.36;100923.78;5034609;28;20478;-69
2024/02/26 00:41:27;;;;;;;6.23;3.80;;;;;;;0.33;76.56;100935.06;5034554;28;20435;-69
2024/02/26 00:43:55;;;;;;;6.10;3.87;;;;;;;0.34;76.29;100932.53;5034783;28;20442;-68
2024/02/26 00:46:22;;;;;;;7.40;4.03;;;;;;;0.32;76.09;100926.47;5034259;28;20955;-69
2024/02/26 00:48:49;;;;;;;6.63;4.10;;;;;;;0.38;76.28;100937.75;5034261;28;20438;-69
2024/02/26 00:51:16;;;;;;;7.83;4.13;;;;;;;0.35;76.46;100942.00;5034139;28;20446;-69
2024/02/26 00:53:43;;;;;;;6.43;3.60;;;;;;;0.34;76.06;100937.69;5034093;28;20562;-69
2024/02/26 00:56:10;;;;;;;6.63;3.97;;;;;;;0.35;76.65;100936.84;5033876;28;20466;-69
2024/02/26 00:58:36;;;;;;;6.27;3.87;;;;;;;0.37;76.10;100938.56;5033923;28;20435;-69
2024/02/26 01:01:05;;;;;;;6.87;3.93;;;;;;;0.37;76.89;100926.59;5034105;28;20440;-73
2024/02/26 01:03:32;;;;;;;6.37;4.10;;;;;;;0.38;76.33;100937.75;5034066;28;20446;-72
2024/02/26 01:05:59;;;;;;;6.93;3.80;;;;;;;0.39;76.78;100939.47;5034391;28;20434;-72
2024/02/26 01:08:26;;;;;;;6.40;3.53;;;;;;;0.40;76.35;100946.38;5033812;28;20950;-72
2024/02/26 01:10:53;;;;;;;3.83;2.93;;;;;;;0.39;76.00;100953.22;5034052;28;20443;-72
2024/02/26 01:13:19;;;;;;;5.40;3.90;;;;;;;0.39;76.50;100953.22;5033711;28;20447;-73
2024/02/26 01:15:46;;;;;;;4.57;3.53;;;;;;;0.40;76.26;100947.25;5033823;28;20443;-73
2024/02/26 01:18:15;;;;;;;5.43;3.50;;;;;;;0.41;76.83;100964.41;5033886;28;20799;-73
2024/02/26 01:20:42;;;;;;;4.60;3.60;;;;;;;0.40;76.15;100960.13;5033544;28;21009;-72
2024/02/26 01:23:08;;;;;;;5.63;3.20;;;;;;;0.40;76.95;100962.69;5033653;28;20443;-72
2024/02/26 01:25:36;;;;;;;5.73;3.57;;;;;;;0.41;76.49;100961.84;5033849;28;20435;-73
2024/02/26 01:28:03;;;;;;;5.83;3.73;;;;;;;0.41;76.07;100954.13;5037293;28;20445;-72
2024/02/26 01:30:30;;;;;;;5.30;3.30;;;;;;;0.41;76.68;100946.41;5053313;28;20441;-72
2024/02/26 01:32:57;;;;;;;5.43;3.63;;;;;;;0.40;76.44;100949.81;5053503;28;20931;-72
2024/02/26 01:35:26;;;;;;;5.90;3.63;;;;;;;0.41;76.53;100946.41;5053207;28;20444;-72
2024/02/26 01:37:53;;;;;;;5.80;3.80;;;;;;;0.41;76.20;100940.38;5053414;28;20423;-72
2024/02/26 01:40:20;;;;;;;7.60;4.13;;;;;;;0.41;76.64;100948.97;5053157;28;20481;-72
2024/02/26 01:42:48;;;;;;;6.27;4.20;;;;;;;0.43;77.07;100941.31;5053230;28;20441;-73
2024/02/26 01:45:21;;;;;;;5.47;3.83;;;;;;;0.44;76.73;100949.03;5053187;28;20485;-72
2024/02/26 01:47:50;;;;;;;5.67;3.57;;;;;;;0.42;76.48;100966.13;5053010;28;20445;-73
2024/02/26 01:50:18;;;;;;;7.47;3.87;;;;;;;0.43;76.62;100962.75;5053103;28;20456;-72
2024/02/26 01:52:47;;;;;;;7.90;4.77;;;;;;;0.43;77.02;100949.88;5052993;28;20433;-72
2024/02/26 01:55:15;;;;;;;6.67;3.90;;;;;;;0.44;76.71;100959.34;5052964;28;20474;-71
2024/02/26 01:57:43;;;;;;;6.50;4.27;;;;;;;0.45;77.11;100955.94;5052935;28;20484;-72
2024/02/26 02:00:11;;;;;;;7.10;4.20;;;;;;;0.46;77.13;100952.53;5053014;28;20892;-72
2024/02/26 02:02:41;;;;;;;7.43;4.43;;;;;;;0.46;76.93;100946.50;5052931;28;20438;-72
2024/02/26 02:05:09;;;;;;;8.47;4.53;;;;;;;0.48;76.95;100953.44;5052785;28;20509;-72
2024/02/26 02:07:37;;;;;;;6.40;4.60;;;;;;;0.49;76.64;100942.28;5052107;28;20441;-72
2024/02/26 02:10:06;;;;;;;8.73;4.53;;;;;;;0.51;77.10;100942.34;5052966;28;20431;-78
2024/02/26 02:12:34;;;;;;;8.83;4.50;;;;;;;0.52;77.18;100946.63;5053180;28;20444;-78
2024/02/26 02:15:01;;;;;;;6.57;4.27;;;;;;;0.53;77.37;100938.06;5053113;28;20489;-78
2024/02/26 02:17:29;;;;;;;5.73;4.30;;;;;;;0.55;76.92;100933.81;5053534;28;20434;-78
2024/02/26 02:19:56;;;;;;;5.23;3.73;;;;;;;0.55;77.38;100932.09;5052867;28;20492;-78
2024/02/26 02:22:24;;;;;;;5.40;4.07;;;;;;;0.56;77.32;100932.97;5053151;28;20442;-78
2024/02/26 02:24:52;;;;;;;6.37;3.93;;;;;;;0.57;77.22;100935.59;5053045;28;20438;-78
2024/02/26 02:27:20;;;;;;;6.37;3.73;;;;;;;0.58;77.12;100939.03;5053199;28;20825;-78
2024/02/26 02:29:48;;;;;;;7.30;4.63;;;;;;;0.58;77.42;100934.75;5052961;28;20442;-79
2024/02/26 02:32:17;;;;;;;6.23;4.20;;;;;;;0.59;77.03;100933.03;5053157;28;20430;-79
2024/02/26 02:34:44;;;;;;;6.37;4.13;;;;;;;0.61;77.39;100936.53;5053001;28;20935;-79
2024/02/26 02:37:11;;;;;;;6.33;4.10;;;;;;;0.61;77.17;100926.22;5052769;28;20433;-79
2024/02/26 02:39:39;;;;;;;8.47;5.10;;;;;;;0.63;77.12;100931.41;5052755;28;20478;-71
2024/02/26 02:42:06;;;;;;;12.20;6.40;;;;;;;0.65;77.21;100932.28;5052444;28;20430;-71
2024/02/26 02:44:33;;;;;;;9.70;5.60;;;;;;;0.64;77.27;100921.13;5052649;28;20450;-71
2024/02/26 02:47:00;;;;;;;9.70;5.33;;;;;;;0.66;77.49;100918.59;5052602;28;20441;-72
2024/02/26 02:49:26;;;;;;;12.00;4.90;;;;;;;0.66;77.17;100913.44;5052283;28;20438;-72
2024/02/26 02:51:54;;;;;;;9.57;5.17;;;;;;;0.66;77.30;100913.44;5052235;28;20443;-72
2024/02/26 02:54:21;;;;;;;10.40;5.53;;;;;;;0.57;77.18;100899.56;5052195;28;20500;-72
2024/02/26 02:56:49;;;;;;;10.23;5.40;;;;;;;0.66;77.08;100903.16;5052414;28;20427;-71
2024/02/26 02:59:16;;;;;;;8.43;5.20;;;;;;;0.68;77.35;100909.19;5052322;28;20452;-71
2024/02/26 03:01:43;;;;;;;11.83;6.17;;;;;;;0.68;77.65;100910.06;5052305;28;20916;-71
2024/02/26 03:04:10;;;;;;;8.57;5.30;;;;;;;0.69;76.94;100908.38;5052184;28;20430;-71
2024/02/26 03:06:37;;;;;;;9.87;5.40;;;;;;;0.66;77.02;100893.72;5052155;28;20442;-71
2024/02/26 03:09:04;;;;;;;11.87;5.97;;;;;;;0.70;77.41;100907.50;5052389;28;20816;-71
2024/02/26 03:11:31;;;;;;;9.80;5.93;;;;;;;0.70;77.54;100902.34;5052207;28;20452;-71
2024/02/26 03:13:59;;;;;;;8.37;4.70;;;;;;;0.71;76.96;100911.84;5052185;28;20445;-71
2024/02/26 03:16:26;;;;;;;10.17;4.60;;;;;;;0.72;77.49;100905.84;5052367;28;20937;-71
2024/02/26 03:18:52;;;;;;;9.20;5.50;;;;;;;0.71;77.44;100902.41;5053400;28;20927;-71
2024/02/26 03:21:19;;;;;;;10.17;5.43;;;;;;;0.72;77.33;100909.28;5056189;28;20484;-79
2024/02/26 03:23:46;;;;;;;10.57;5.83;;;;;;;0.72;77.64;100903.25;5056224;28;20434;-79
2024/02/26 03:26:14;;;;;;;10.60;6.10;;;;;;;0.72;77.70;100903.25;5056429;28;20457;-79
2024/02/26 03:28:41;;;;;;;10.60;5.70;;;;;;;0.75;77.60;100908.47;5043166;28;20447;-79
2024/02/26 03:31:10;;;;;;;11.40;6.30;;;;;;;0.74;77.07;100896.44;5036341;28;20450;-79
2024/02/26 03:33:37;;;;;;;9.07;5.80;;;;;;;0.75;77.58;100899.03;5036457;28;20463;-79
2024/02/26 03:36:04;;;;;;;8.80;5.13;;;;;;;0.76;77.04;100895.59;5036396;28;20439;-79
2024/02/26 03:38:31;;;;;;;9.40;5.90;;;;;;;0.77;77.21;100892.22;5036006;28;20430;-79
2024/02/26 03:40:58;;;;;;;7.83;4.63;;;;;;;0.79;77.57;100892.22;5035927;28;21021;-79
2024/02/26 03:43:25;;;;;;;10.23;5.47;;;;;;;0.80;77.81;100902.56;5036008;28;20437;-78
2024/02/26 03:45:52;;;;;;;9.67;5.20;;;;;;;0.81;77.53;100893.13;5035792;28;20447;-79
2024/02/26 03:48:21;;;;;;;8.00;5.40;;;;;;;0.80;77.30;100892.28;5036170;28;20445;-79
2024/02/26 03:50:48;;;;;;;8.73;4.97;;;;;;;0.83;77.28;100900.91;5036096;28;20441;-79
2024/02/26 03:53:14;;;;;;;8.77;4.90;;;;;;;0.84;77.72;100897.47;5036246;28;20443;-79
2024/02/26 03:55:42;;;;;;;8.70;5.37;;;;;;;0.85;77.58;100900.09;5036397;28;20481;-79
2024/02/26 03:58:09;;;;;;;8.30;5.50;;;;;;;0.83;77.27;100896.63;5035929;28;20447;-79
2024/02/26 04:00:36;;;;;;;9.80;6.17;;;;;;;0.86;77.40;100893.22;5036230;28;20478;-79
2024/02/26 04:03:03;;;;;;;10.70;5.40;;;;;;;0.87;77.42;100898.41;5035920;28;20440;-79
2024/02/26 04:05:31;;;;;;;11.70;5.37;;;;;;;0.88;77.53;100888.97;5035809;28;20463;-79
2024/02/26 04:07:58;;;;;;;8.17;5.30;;;;;;;0.88;77.62;100897.59;5035417;28;20443;-80
2024/02/26 04:10:25;;;;;;;9.60;5.30;;;;;;;0.88;77.75;100895.00;5035490;28;20450;-79
2024/02/26 04:12:52;;;;;;;7.43;4.87;;;;;;;0.89;77.80;100886.44;5035654;28;20436;-79
2024/02/26 04:15:19;;;;;;;9.53;5.47;;;;;;;0.90;77.46;100885.56;5035588;28;20440;-79
2024/02/26 04:17:46;;;;;;;8.10;4.67;;;;;;;0.91;77.25;100883.91;5035267;28;20441;-79
2024/02/26 04:20:16;;;;;;;7.83;4.63;;;;;;;0.84;77.34;100871.72;5035173;28;20485;-79
2024/02/26 04:22:45;;;;;;;7.60;4.03;;;;;;;0.91;77.56;100884.75;5035277;28;20509;-79
2024/02/26 04:25:12;;;;;;;9.37;4.83;;;;;;;0.91;77.87;100897.63;5035238;28;20442;-79
2024/02/26 04:27:39;;;;;;;9.03;5.00;;;;;;;0.91;77.82;100899.34;5035367;28;20427;-79
2024/02/26 04:30:08;;;;;;;9.10;5.27;;;;;;;0.92;77.74;100896.78;5034351;28;20517;-73
2024/02/26 04:32:35;;;;;;;7.00;4.80;;;;;;;0.92;77.46;100894.22;5034759;28;20449;-73
2024/02/26 04:35:03;;;;;;;8.30;4.80;;;;;;;0.93;77.46;100883.06;5034705;28;20493;-73
2024/02/26 04:37:31;;;;;;;6.20;4.53;;;;;;;0.92;77.72;100891.63;5034521;28;20443;-73
2024/02/26 04:39:59;;;;;;;7.67;4.73;;;;;;;0.92;77.56;100894.22;5034490;28;20443;-73
2024/02/26 04:42:26;;;;;;;8.70;5.43;;;;;;;0.92;77.33;100895.91;5034232;28;20807;-72
2024/02/26 04:44:53;;;;;;;8.13;4.80;;;;;;;0.92;77.79;100894.22;5034428;28;20446;-73
2024/02/26 04:47:21;;;;;;;8.67;4.63;;;;;;;0.93;77.22;100895.94;5034398;28;20431;-73
2024/02/26 04:49:48;;;;;;;8.13;4.70;;;;;;;0.94;77.17;100907.13;5034559;28;20447;-73
2024/02/26 04:52:15;;;;;;;8.03;4.47;;;;;;;0.93;77.17;100897.66;5034398;28;20934;-72
2024/02/26 04:54:42;;;;;;;6.97;4.57;;;;;;;0.94;77.47;100908.00;5034047;28;20491;-73
2024/02/26 04:57:10;;;;;;;8.17;4.90;;;;;;;0.93;77.28;100911.38;5034169;28;20481;-71
2024/02/26 04:59:37;;;;;;;7.90;4.57;;;;;;;0.93;77.18;100920.84;5034069;28;20521;-72
2024/02/26 05:02:05;;;;;;;6.73;4.40;;;;;;;0.92;77.26;100929.41;5034074;28;20982;-71
2024/02/26 05:04:31;;;;;;;8.77;4.63;;;;;;;0.92;77.13;100938.00;5034278;28;20451;-72
2024/02/26 05:06:58;;;;;;;6.93;4.67;;;;;;;0.92;77.30;100926.84;5034015;28;20435;-71
2024/02/26 05:09:25;;;;;;;6.60;4.57;;;;;;;0.91;77.22;100932.84;5033802;28;20443;-71
2024/02/26 05:11:52;;;;;;;7.73;4.63;;;;;;;0.91;77.20;100932.84;5034095;28;20439;-71
2024/02/26 05:14:21;;;;;;;7.73;4.50;;;;;;;0.90;77.26;100931.94;5033965;28;20462;-71
2024/02/26 05:16:48;;;;;;;8.60;4.80;;;;;;;0.90;77.44;100942.25;5033757;28;20531;-71
2024/02/26 05:19:15;;;;;;;8.50;4.93;;;;;;;0.90;77.67;100937.09;5033677;28;20439;-72
2024/02/26 05:21:44;;;;;;;7.40;4.47;;;;;;;0.91;77.20;100935.41;5033655;28;20481;-71
2024/02/26 05:24:10;;;;;;;6.50;4.47;;;;;;;0.89;77.13;100932.78;5033524;28;20973;-72
2024/02/26 05:26:37;;;;;;;7.47;4.63;;;;;;;0.90;77.42;100925.94;5033467;28;20949;-72
2024/02/26 05:29:04;;;;;;;6.53;4.30;;;;;;;0.89;77.04;100932.78;5033256;28;20448;-71
2024/02/26 05:31:32;;;;;;;6.07;4.10;;;;;;;0.88;77.20;100936.22;5033750;28;20446;-71
2024/02/26 05:33:59;;;;;;;6.20;3.97;;;;;;;0.88;77.30;100941.38;5033497;28;20447;-71
2024/02/26 05:36:28;;;;;;;10.57;4.87;;;;;;;0.88;77.37;100938.78;5033405;28;20862;-71
2024/02/26 05:38:55;;;;;;;6.87;4.13;;;;;;;0.87;77.26;100944.75;5033248;28;20470;-72
2024/02/26 05:41:25;;;;;;;7.93;4.77;;;;;;;0.86;77.29;100937.88;5033380;28;20486;-78
2024/02/26 05:43:53;;;;;;;6.00;4.00;;;;;;;0.85;77.01;100946.47;5033487;28;20457;-79
2024/02/26 05:46:20;;;;;;;7.20;4.43;;;;;;;0.85;76.86;100940.41;5033559;28;20931;-78
2024/02/26 05:48:50;;;;;;;6.63;4.30;;;;;;;0.85;77.02;100943.00;5033319;28;20991;-79
2024/02/26 05:51:17;;;;;;;7.60;5.10;;;;;;;0.79;77.21;100936.00;5033318;28;20482;-79
2024/02/26 05:53:44;;;;;;;6.10;4.70;;;;;;;0.79;76.93;100942.06;5033447;28;20959;-79
2024/02/26 05:56:11;;;;;;;6.70;4.80;;;;;;;0.81;77.27;100939.50;5033160;28;20971;-79
2024/02/26 05:58:37;;;;;;;6.60;4.50;;;;;;;0.81;76.92;100934.34;5033275;28;20435;-79
2024/02/26 06:01:04;;;;;;;7.07;4.47;;;;;;;0.81;77.37;100936.91;5033109;28;20493;-78
2024/02/26 06:03:32;;;;;;;8.40;5.10;;;;;;;0.81;77.53;100939.50;5033158;28;20818;-79
2024/02/26 06:06:00;;;;;;;7.23;4.37;;;;;;;0.80;77.07;100950.66;5033204;28;20493;-79
2024/02/26 06:08:27;;;;;;;6.77;4.80;;;;;;;0.79;77.25;100947.22;5033182;28;20457;-79
2024/02/26 06:10:54;;;;;;;6.57;4.63;;;;;;;0.79;77.21;100947.22;5033245;28;20449;-72
2024/02/26 06:13:21;;;;;;;7.57;4.80;;;;;;;0.79;77.04;100948.88;5032811;28;20443;-72
2024/02/26 06:15:48;;;;;;;6.90;4.47;;;;;;;0.78;77.37;100949.75;5032981;28;20434;-72
2024/02/26 06:18:15;;;;;;;7.63;4.83;;;;;;;0.77;77.44;100959.19;5033011;28;20443;-72
2024/02/26 06:20:42;;;;;;;9.00;5.20;;;;;;;0.77;77.13;100948.00;5032769;28;20482;-72
2024/02/26 06:23:10;;;;;;;6.70;4.77;;;;;;;0.76;77.48;100954.84;5032611;28;20447;-72
2024/02/26 06:25:37;;;;;;;6.93;4.77;;;;;;;0.73;76.82;100947.06;5032704;28;20970;-73
2024/02/26 06:28:05;;;;;;;7.07;4.67;;;;;;;0.75;77.23;100945.41;5032912;28;20442;-73
2024/02/26 06:30:32;;;;;;;7.57;4.50;;;;;;;0.74;77.22;100953.09;5032769;28;20508;-72
2024/02/26 06:32:58;;;;;;;6.83;4.30;;;;;;;0.72;77.19;100950.47;5032690;28;20447;-73
2024/02/26 06:35:25;;;;;;;7.20;5.10;;;;;;;0.73;76.59;100946.19;5032577;28;20447;-73
2024/02/26 06:37:52;;;;;;;6.60;4.90;;;;;;;0.71;77.48;100948.75;5032933;28;20807;-73
2024/02/26 06:40:21;;;;;;;7.73;4.37;;;;;;;0.70;77.12;100951.28;5032722;28;20439;-72
2024/02/26 06:42:48;;;;;;;8.23;5.13;;;;;;;0.69;77.10;100954.72;5032578;28;20431;-72
2024/02/26 06:45:15;;;;;;;6.33;4.40;;;;;;;0.69;76.99;100959.88;5032456;28;20826;-72
2024/02/26 06:47:42;;;;;;;7.93;5.27;;;;;;;0.69;77.43;100970.16;5032634;28;20958;-73
2024/02/26 06:50:10;;;;;;;7.93;4.70;;;;;;;0.66;76.83;100960.66;5032637;28;20450;-79
2024/02/26 06:52:37;;;;;;;6.93;4.47;;;;;;;0.68;76.95;100959.00;5032671;28;20442;-79
2024/02/26 06:55:05;;;;;;;6.63;4.50;;;;;;;0.68;77.09;100964.16;5036294;28;20470;-79
2024/02/26 06:57:33;;;;;;;6.93;4.50;;;;;;;0.68;77.09;100970.97;5036563;28;20446;-79
2024/02/26 07:00:00;;;;;;;7.90;5.07;;;;;;;0.67;76.84;100969.25;5036513;28;20437;-79
2024/02/26 07:02:27;;;;;;;7.50;5.30;;;;;;;0.67;77.13;100971.81;5036445;28;20486;-79
2024/02/26 07:04:54;;;;;;;9.80;5.43;;;;;;;0.67;77.46;100969.25;5036374;28;20453;-79
2024/02/26 07:07:22;;;;;;;8.90;5.37;;;;;;;0.65;77.42;100976.06;5036448;28;20919;-78
2024/02/26 07:09:49;;;;;;;7.63;4.93;;;;;;;0.63;77.51;100981.19;5036630;28;20500;-78
2024/02/26 07:12:16;;;;;;;6.63;4.67;;;;;;;0.68;77.15;100986.44;5036524;28;20438;-79
2024/02/26 07:14:45;;;;;;;9.30;5.77;;;;;;;0.68;77.34;100983.84;5036344;28;20435;-79
2024/02/26 07:17:12;;;;;;;8.17;5.90;;;;;;;0.70;77.34;100989.91;5036191;28;20447;-79
2024/02/26 07:19:39;;;;;;;8.80;6.17;;;;;;;0.71;77.54;100989.09;5036172;28;20442;-71
2024/02/26 07:22:06;;;;;;;9.00;6.23;;;;;;;0.71;77.77;100994.25;5035894;28;20474;-71
2024/02/26 07:24:33;;;;;;;8.53;5.40;;;;;;;0.70;77.48;100998.50;5036131;28;20431;-71
2024/02/26 07:27:00;;;;;;;10.07;5.83;;;;;;;0.69;77.86;100995.91;5035717;28;20443;-71
2024/02/26 07:29:26;;;;;;;9.97;5.90;;;;;;;0.72;77.89;101006.28;5035803;28;20435;-71
2024/02/26 07:31:55;;;;;;;10.90;6.47;;;;;;;0.73;77.86;101000.28;5036005;28;20446;-71
2024/02/26 07:34:27;;;;;;;11.03;6.57;;;;;;;0.74;77.96;101009.75;5035754;28;20443;-71
2024/02/26 07:36:54;;;;;;;12.67;6.63;;;;;;;0.74;77.95;101004.63;5035598;28;20451;-72
2024/02/26 07:39:21;;;;;;;12.40;6.50;;;;;;;0.75;78.41;101006.34;5035444;28;20442;-71
2024/02/26 07:41:49;;;;;;;13.53;6.27;;;;;;;0.77;78.29;101009.81;5034884;28;20505;-71
2024/02/26 07:44:16;;;;;;;12.80;5.83;;;;;;;0.78;78.52;101012.41;5035348;28;20497;-71
2024/02/26 07:46:43;;;;;;;8.57;4.50;;;;;;;0.78;77.91;101020.16;5035508;28;20443;-71
2024/02/26 07:49:11;;;;;;;12.23;4.70;;;;;;;0.76;78.24;101018.38;5035443;28;20445;-71
2024/02/26 07:51:38;;;;;;;7.53;4.37;;;;;;;0.83;78.65;101030.56;5035347;28;20447;-71
2024/02/26 07:54:05;;;;;;;7.63;4.10;;;;;;;0.84;78.23;101037.44;5035772;28;20435;-71
2024/02/26 07:56:32;;;;;;;9.77;4.50;;;;;;;0.85;78.19;101031.47;5035059;28;20465;-71
2024/02/26 07:58:58;;;;;;;7.93;4.43;;;;;;;0.88;78.14;101034.09;5035370;28;20446;-71
2024/02/26 08:01:26;;;;;;;10.40;4.80;;;;;;;0.89;78.62;101035.84;5035220;28;20483;-72
2024/02/26 08:03:53;;;;;;;11.23;4.60;;;;;;;0.90;78.57;101032.41;5035423;28;20538;-73
2024/02/26 08:06:21;;;;;;;10.33;4.20;;;;;;;0.92;78.56;101035.03;5034140;28;20439;-73
2024/02/26 08:08:48;;;;;;;14.63;4.83;;;;;;;0.93;78.53;101037.63;5035036;28;20881;-73
2024/02/26 08:11:16;;;;;;;9.23;4.43;;;;;;;0.94;78.78;101036.81;5035365;28;20814;-73
2024/02/26 08:13:43;;;;;;;12.30;4.80;;;;;;;0.97;78.57;101044.59;5035415;28;20798;-72
2024/02/26 08:16:10;;;;;;;9.33;5.30;;;;;;;0.99;79.05;101042.94;5035029;28;20777;-72
2024/02/26 08:18:37;;;;;;;8.00;4.63;;;;;;;1.01;78.69;101038.66;5034908;28;20924;-73
2024/02/26 08:21:04;;;;;;;13.00;5.33;;;;;;;1.06;79.06;101045.63;5034753;28;20930;-73
2024/02/26 08:23:32;;;;;;;33.83;6.10;;;;;;;1.09;79.23;101040.53;5034800;28;20928;-72
2024/02/26 08:25:59;;;;;;;9.77;4.63;;;;;;;1.12;79.09;101041.44;5034805;28;20442;-74
2024/02/26 08:28:26;;;;;;;15.53;5.60;;;;;;;1.16;79.15;101047.53;5034907;28;20439;-73
2024/02/26 08:30:53;;;;;;;11.60;5.67;;;;;;;1.20;79.69;101050.22;5034641;28;20449;-73
2024/02/26 08:33:20;;;;;;;8.07;4.37;;;;;;;1.23;79.37;101046.84;5034752;28;20435;-73
2024/02/26 08:35:47;;;;;;;8.77;4.17;;;;;;;1.27;79.44;101048.63;5034529;28;20431;-73
2024/02/26 08:38:14;;;;;;;8.70;5.20;;;;;;;1.30;79.62;101047.81;5034443;28;20431;-73
2024/02/26 08:40:42;;;;;;;11.07;5.00;;;;;;;1.34;79.48;101053.06;5034547;28;20439;-73
2024/02/26 08:43:09;;;;;;;7.50;4.33;;;;;;;1.38;79.23;101049.69;5034222;28;21074;-73
2024/02/26 08:45:37;;;;;;;8.57;4.33;;;;;;;1.39;79.03;101051.47;5034450;28;20447;-72
2024/02/26 08:48:04;;;;;;;8.70;4.53;;;;;;;1.37;79.29;101040.25;5034379;28;20535;-73
2024/02/26 08:50:31;;;;;;;6.23;3.87;;;;;;;1.42;79.18;101043.78;5034375;28;20435;-72
2024/02/26 08:52:58;;;;;;;7.50;4.20;;;;;;;1.49;79.15;101055.06;5034151;28;20443;-72
2024/02/26 08:55:25;;;;;;;9.30;4.80;;;;;;;1.43;79.31;101037.78;5034526;28;20466;-72
2024/02/26 08:57:53;;;;;;;8.07;4.07;;;;;;;1.57;79.50;101045.78;5034294;28;20439;-73
2024/02/26 09:00:21;;;;;;;8.63;4.60;;;;;;;1.61;79.33;101051.84;5034173;28;20924;-72
2024/02/26 09:02:49;;;;;;;8.20;4.83;;;;;;;1.66;79.54;101055.38;5034036;28;20487;-73
2024/02/26 09:05:16;;;;;;;7.50;4.87;;;;;;;1.70;79.33;101055.47;5034203;28;20450;-73
2024/02/26 09:07:43;;;;;;;7.43;4.70;;;;;;;1.75;79.13;101058.13;5034132;28;20450;-74
2024/02/26 09:10:10;;;;;;;8.30;4.67;;;;;;;1.79;79.36;101053.88;5034069;28;20491;-73
2024/02/26 09:12:37;;;;;;;5.67;3.87;;;;;;;1.82;79.30;101062.56;5034182;28;20455;-73
2024/02/26 09:15:07;;;;;;;12.50;5.70;;;;;;;1.85;78.93;101062.63;5033885;28;20944;-73
2024/02/26 09:17:34;;;;;;;6.63;4.37;;;;;;;1.90;79.09;101067.84;5033625;28;20441;-73
2024/02/26 09:20:01;;;;;;;9.00;5.13;;;;;;;1.93;79.18;101073.03;5033787;28;20447;-72
2024/02/26 09:22:28;;;;;;;7.83;4.77;;;;;;;1.92;79.00;101072.19;5033601;28;20475;-73
2024/02/26 09:24:55;;;;;;;10.60;4.70;;;;;;;1.99;79.38;101072.28;5033744;28;20441;-73
2024/02/26 09:27:23;;;;;;;9.00;5.13;;;;;;;1.99;79.38;101072.28;5033383;28;20516;-73
2024/02/26 09:29:50;;;;;;;12.13;4.87;;;;;;;2.04;79.03;101078.41;5033534;28;20481;-73
2024/02/26 09:32:18;;;;;;;8.03;4.00;;;;;;;2.07;79.18;101070.72;5033533;28;20821;-72
2024/02/26 09:34:45;;;;;;;7.30;4.60;;;;;;;2.06;79.18;101080.16;5033389;28;20986;-73
2024/02/26 09:37:12;;;;;;;8.70;4.80;;;;;;;2.11;79.14;101075.97;5033423;28;20440;-72
2024/02/26 09:39:39;;;;;;;8.43;4.53;;;;;;;2.06;79.10;101062.09;5033404;28;20529;-73
2024/02/26 09:42:09;;;;;;;10.43;4.57;;;;;;;2.14;78.80;101082.88;5033228;28;20482;-73
2024/02/26 09:44:38;;;;;;;14.33;5.93;;;;;;;2.17;79.02;101076.91;5033211;28;20476;-73
2024/02/26 09:47:09;;;;;;;7.43;4.73;;;;;;;2.18;79.14;101074.34;5033429;28;20447;-73
2024/02/26 09:49:38;;;;;;;8.00;4.27;;;;;;;2.21;79.02;101083.84;5033468;28;20444;-73
2024/02/26 09:52:05;;;;;;;11.20;4.73;;;;;;;2.22;79.09;101075.28;5033196;28;20444;-73
2024/02/26 09:54:33;;;;;;;8.90;4.60;;;;;;;2.23;78.97;101080.44;5033056;28;20447;-73
2024/02/26 09:57:03;;;;;;;6.73;4.57;;;;;;;2.26;79.04;101075.34;5033039;28;20451;-73
2024/02/26 09:59:35;;;;;;;7.07;4.80;;;;;;;2.29;79.00;101074.53;5033151;28;20878;-73
2024/02/26 10:02:02;;;;;;;7.90;4.57;;;;;;;2.32;79.18;101078.00;5032866;28;20478;-73
2024/02/26 10:04:30;;;;;;;5.50;3.93;;;;;;;2.33;78.98;101079.78;5032965;28;20945;-73
2024/02/26 10:07:01;;;;;;;9.30;5.00;;;;;;;2.37;79.07;101081.53;5032826;28;20435;-72
2024/02/26 10:09:28;;;;;;;7.57;4.80;;;;;;;2.40;79.09;101077.28;5033244;28;20480;-73
2024/02/26 10:11:55;;;;;;;9.13;5.10;;;;;;;2.44;79.07;101079.91;5032856;28;20861;-73
2024/02/26 10:14:22;;;;;;;10.17;5.87;;;;;;;2.48;79.23;101083.44;5033100;28;20449;-71
2024/02/26 10:16:51;;;;;;;8.93;5.40;;;;;;;2.49;79.27;101078.28;5032781;28;20848;-72
2024/02/26 10:19:27;;;;;;;9.87;5.17;;;;;;;2.54;79.14;101081.81;5032890;28;20435;-73
2024/02/26 10:21:58;;;;;;;10.93;5.50;;;;;;;2.55;79.44;101074.91;5032717;28;20483;-71
2024/02/26 10:24:26;;;;;;;9.27;4.90;;;;;;;2.59;79.12;101087.06;5032682;28;20935;-72
2024/02/26 10:26:54;;;;;;;8.03;4.80;;;;;;;2.62;79.20;101084.50;5032778;28;20503;-72
2024/02/26 10:29:21;;;;;;;7.67;4.57;;;;;;;2.66;79.11;101082.84;5031940;28;20439;-72
2024/02/26 10:31:48;;;;;;;7.83;4.80;;;;;;;2.69;78.91;101082.88;5032867;28;20807;-72
2024/02/26 10:34:16;;;;;;;6.57;5.00;;;;;;;2.70;78.71;101080.34;5032553;28;20955;-71
2024/02/26 10:36:43;;;;;;;8.00;4.60;;;;;;;2.72;78.92;101081.19;5032697;28;20446;-71
2024/02/26 10:39:13;;;;;;;7.87;4.60;;;;;;;2.74;78.85;101076.94;5032657;28;20934;-71
2024/02/26 10:41:41;;;;;;;6.63;4.63;;;;;;;2.74;78.67;101076.94;5032685;28;20874;-71
2024/02/26 10:44:10;;;;;;;8.03;4.67;;;;;;;2.79;78.74;101080.47;5032493;28;20840;-71
2024/02/26 10:46:38;;;;;;;7.10;4.87;;;;;;;2.81;78.77;101078.78;5032587;28;20445;-72
2024/02/26 10:49:06;;;;;;;7.10;4.73;;;;;;;2.85;78.66;101079.66;5032500;28;20453;-71
2024/02/26 10:51:37;;;;;;;7.47;4.50;;;;;;;2.87;78.70;101090.91;5032664;28;20762;-78
2024/02/26 10:54:07;;;;;;;8.20;5.00;;;;;;;2.86;78.57;101080.53;5032658;28;20442;-78
2024/02/26 10:56:39;;;;;;;8.10;4.93;;;;;;;2.93;78.53;101087.53;5032353;28;20482;-78
2024/02/26 10:59:10;;;;;;;9.77;5.60;;;;;;;2.96;78.62;101078.09;5032580;28;20473;-78
2024/02/26 11:01:38;;;;;;;9.47;5.57;;;;;;;2.94;78.73;101073.75;5032338;28;20450;-78
2024/02/26 11:04:06;;;;;;;8.93;5.93;;;;;;;3.03;78.71;101084.22;5032406;28;20500;-78
2024/02/26 11:06:34;;;;;;;9.50;5.40;;;;;;;3.01;78.71;101078.16;5032642;28;20449;-78
2024/02/26 11:09:03;;;;;;;8.07;5.13;;;;;;;3.09;78.55;101084.28;5032355;28;20441;-78
2024/02/26 11:11:31;;;;;;;7.40;5.27;;;;;;;3.11;78.63;101077.44;5032529;28;20436;-79
2024/02/26 11:14:02;;;;;;;7.73;5.20;;;;;;;3.17;78.62;101085.25;5032419;28;20984;-78
2024/02/26 11:16:30;;;;;;;7.00;4.50;;;;;;;3.19;78.66;101080.97;5032337;28;20438;-78
2024/02/26 11:18:59;;;;;;;6.97;4.93;;;;;;;3.23;78.31;101081.88;5032672;28;20438;-79
2024/02/26 11:21:38;;;;;;;9.40;5.03;;;;;;;3.25;78.58;101075.88;5032461;28;20455;-79
2024/02/26 11:24:06;;;;;;;6.73;4.73;;;;;;;3.25;78.55;101075.88;5032341;28;20490;-79
2024/02/26 11:26:35;;;;;;;7.73;5.20;;;;;;;3.25;78.61;101070.72;5032445;28;20441;-79
2024/02/26 11:29:04;;;;;;;7.60;4.90;;;;;;;3.33;78.47;101088.91;5032162;28;20441;-78
2024/02/26 11:31:32;;;;;;;7.13;4.83;;;;;;;3.35;78.49;101089.78;5032203;28;20437;-73
2024/02/26 11:33:59;;;;;;;9.10;5.83;;;;;;;3.37;78.62;101087.22;5032025;28;20447;-73